Tallmansville, West Virginia
Current Conditions -  °F | °C
As of 3:55 PM on Tuesday 21 Oct 2014 (Local Time) from KW22 Reporting Station
Heavy Rain Heavy Rain  
Wind Chill: 43°   Ceiling: 1100
Heat Index: 48°   Visibility: 1.7mi
Dew Point: 48°   Wind: 13mph
Humidity: 100%   Direction: 350°N
Pressure: 29.91"   Gusts: NA
Location:  38.91°N, 80.18°W
Report Text: KW22 211955Z AUTO 35011KT 1 3/4SM +RA SCT005 BKN011 OVC019 09/09 A2991 RMK AO2
Loading
Personal Weather Stations






























Interactive Weather Map
Tropical Storm Tracking
New forecast layout! Learn more

10-Day Weather Forecast

Advertisements
Track Severe Weather on mobile